OMDBFMMI

Guest
Details From OMDB - Dubai Intl
To FMMI - Ivato
Flight Number -
Tags Generated
Created
Modified
Stats Distance 2,686 nm / 4,975 km
Max Altitude 0 ft / 0 m
Waypoints 4
Social Downloads 0
Likes 0
Share VATSIM

Download

Looking for another format? Having issues loading an existing format? Contact us
Advertisement - Login to hide

Notes

Generated

Route

OMDB TMR16 IA FMMI

ID Type Via Altitude Latitude Longitude Leg Dist Tot Dist Heading (true) Name
O OMDB APT - 0 ft / 0 m 25.26213˚ 55.34757˚ - 0 nm - -
TMR16 FIX - 0 ft / 0 m 17.93444˚ 53.99403˚ 446 nm 446 nm 190° / 190° -
IA NDB - 0 ft / 0 m -18.79336˚ 47.45492˚ 2239 nm 2685 nm 190° / 190° ANTANANARIVO IVATO NDB
O FMMI APT - 0 ft / 0 m -18.79479˚ 47.46427˚ 0 nm 2686 nm 99° / 99° -

Altitude Profile

Advertisement - Login to hide

Weather


0- 5 10 15 20 25 30 35+ Temperature / ° C

Clouds and Precipitation
Forecast for 2017-12-16 18:00 UTC. Updated 2 hours ago

Ground ~20,000 ft ~40,000 ft Winds

OMDB

Details ICAO OMDB (DXB)
Name DUBAI INTL
Region United Arab Emirates
Timezone Asia/Dubai (UTC+4.0)
Stats Elevation 62 ft / 19 m (AMSL)
Location 25.254912° 55.364260°
Runways 2
Magnetic Variation 2.047° E

METAR

OMDB 161900Z 03013KT 010V070 CAVOK 21/16 Q1019 RETS WS ALL RWY NOSIG

Decode

TAF

TAF OMDB 161709Z 1618/1800 08008KT 8000 FEW040 PROB30 TEMPO 1618/1621 02015G25KT FEW040CB PROB30 TEMPO 1706/1720 06020G30KT 3000 TSRA SCT040CB BECMG 1710/1712 01012KT BECMG 1716/1718 08008KT

Decode

Departure Runways

ID Width Length Bearing (true) Bearing (mag) Surface Threshold Offset Overrun Length
12L 197 ft / 60 m 13,124 ft / 4,000 m 121.49° 119.44° Asphalt 1,312 ft / 400 m 395 ft / 120 m
12R 151 ft / 46 m 13,139 ft / 4,005 m 121.48° 119.43° Asphalt 394 ft / 120 m 197 ft / 60 m
30L 151 ft / 46 m 13,139 ft / 4,005 m 301.50° 299.45° Asphalt 2,953 ft / 900 m 197 ft / 60 m
30R 197 ft / 60 m 13,124 ft / 4,000 m 301.51° 299.46° Asphalt 0 ft / 0 m 395 ft / 120 m

FMMI

Details ICAO FMMI (TNR)
Name IVATO
Region Comoros, Mayotte, Réunion and Madagascar
Timezone Indian/Antananarivo (UTC+3.0)
Stats Elevation 4,198 ft / 1,280 m (AMSL)
Location -18.796950° 47.478806°
Runways 1
Magnetic Variation 15.161° W

METAR

FMMI 161900Z 11008KT 9999 FEW010 BKN020 18/17 Q1023 NOSIG

Decode

TAF

TAF FMMI 161100Z 1612/1718 14010KT 9999 FEW017 BKN020 PROB40 TEMPO 1612/1616 12015G25KT PROB30 TEMPO 1613/1620 4800 TSRA FEW010 BKN015CB TEMPO 1700/1706 4800 SHRA BKN010

Decode

Destination Runways

ID Width Length Bearing (true) Bearing (mag) Surface Threshold Offset Overrun Length
11 148 ft / 45 m 10,167 ft / 3,099 m 98.92° 114.08° Asphalt 0 ft / 0 m 90 ft / 27 m
29 148 ft / 45 m 10,167 ft / 3,099 m 278.91° 294.07° Asphalt 0 ft / 0 m 90 ft / 27 m

Approach Navaids

Runway Type Ident Frequency Range Bearing (true) Bearing (mag) Slope Elevation
11 Localiser IO 109.50 MHz 18 nm / 33 km 98.89° 114.05° - 4,125 ft / 1,257 m (AMSL)
11 Glidescope IO 109.50 MHz 10 nm / 19 km 98.91° 114.07° 3.00° 4,198 ft / 1,280 m (AMSL)